Time;durP1;ratioP1;P1;durP2;ratioP2;P2;SDS_P1;SDS_P2;PMS_P1;PMS_P2;Temp;Humidity;BMP_temperature;BMP_pressure;BME280_temperature;BME280_humidity;BME280_pressure;Samples;Min_cycle;Max_cycle;Signal;HPM_P1;HPM_P2
2022/12/07 00:00:32;;;;;;;;;;;28.90;91.20;;;;;;5126904;28;20155;-53
2022/12/07 00:02:58;;;;;;;;;;;28.80;91.00;;;;;;5127270;28;19939;-50
2022/12/07 00:05:24;;;;;;;;;;;28.70;91.00;;;;;;5126602;28;20304;-46
2022/12/07 00:07:50;;;;;;;;;;;28.70;91.20;;;;;;5126574;28;19935;-52
2022/12/07 00:10:16;;;;;;;;;;;28.70;91.20;;;;;;5125035;28;19918;-42
2022/12/07 00:12:43;;;;;;;;;;;28.60;91.20;;;;;;5106091;28;19992;-47
2022/12/07 00:15:09;;;;;;;;;;;28.60;91.10;;;;;;5106132;28;19979;-46
2022/12/07 00:17:35;;;;;;;;;;;28.60;91.20;;;;;;5105752;28;19908;-42
2022/12/07 00:21:34;;;;;;;9.52;4.10;;;28.50;91.60;;;;;;5141641;27;20394;-49
2022/12/07 00:24:02;;;;;;;8.55;3.97;;;28.30;91.00;;;;;;5142466;28;20027;-52
2022/12/07 00:26:35;;;;;;;10.95;3.40;;;28.10;91.50;;;;;;5142316;27;20015;-51
2022/12/07 00:29:07;;;;;;;8.05;3.20;;;28.00;91.10;;;;;;5137041;27;20373;-53
2022/12/07 00:31:40;;;;;;;5.60;3.20;;;27.90;91.10;;;;;;5141319;27;20061;-51
2022/12/07 00:34:12;;;;;;;10.93;2.42;;;27.80;90.90;;;;;;5140336;28;20094;-54
2022/12/07 00:36:38;;;;;;;7.20;2.37;;;27.80;90.80;;;;;;5143013;28;20020;-55
2022/12/07 00:39:05;;;;;;;12.18;2.58;;;27.80;91.00;;;;;;5142551;28;20057;-53
2022/12/07 00:41:31;;;;;;;6.55;2.55;;;27.80;91.00;;;;;;5142333;27;20011;-59
2022/12/07 00:43:58;;;;;;;6.53;2.33;;;27.80;91.20;;;;;;5141815;28;20015;-57
2022/12/07 00:46:26;;;;;;;12.05;3.00;;;27.70;91.10;;;;;;5141562;28;20208;-54
2022/12/07 00:48:53;;;;;;;9.13;3.20;;;27.70;91.20;;;;;;5134247;27;20038;-54
2022/12/07 00:51:22;;;;;;;5.38;4.63;;;27.70;91.40;;;;;;5130647;28;20046;-57
2022/12/07 00:53:49;;;;;;;6.18;3.80;;;27.60;91.40;;;;;;5130491;28;20023;-53
2022/12/07 00:56:19;;;;;;;7.57;3.85;;;27.70;91.40;;;;;;5132454;27;20287;-56
2022/12/07 00:58:51;;;;;;;5.88;2.65;;;27.60;91.50;;;;;;5131030;28;20035;-54
2022/12/07 01:01:19;;;;;;;6.15;2.83;;;27.60;91.60;;;;;;5130265;28;20032;-55
2022/12/07 01:03:46;;;;;;;9.70;2.72;;;27.60;91.40;;;;;;5121160;28;20055;-60
2022/12/07 01:06:16;;;;;;;22.95;3.75;;;27.50;91.40;;;;;;5121726;28;20020;-57
2022/12/07 01:08:42;;;;;;;15.70;3.33;;;27.50;91.50;;;;;;5126172;28;20023;-59
2022/12/07 01:11:13;;;;;;;12.63;3.40;;;27.50;91.30;;;;;;5134918;28;20031;-56
2022/12/07 01:13:41;;;;;;;14.80;5.18;;;27.50;91.50;;;;;;5141681;28;20027;-54
2022/12/07 01:16:09;;;;;;;9.60;3.25;;;27.40;91.40;;;;;;5137098;27;20035;-55
2022/12/07 01:18:36;;;;;;;16.45;3.03;;;27.40;91.40;;;;;;5130923;28;20226;-55
2022/12/07 01:21:11;;;;;;;7.85;2.97;;;27.40;91.40;;;;;;5120654;28;20035;-57
2022/12/07 01:23:38;;;;;;;6.85;2.63;;;27.40;91.50;;;;;;5120906;28;20245;-59
2022/12/07 01:26:09;;;;;;;10.00;2.60;;;27.30;91.60;;;;;;5121134;28;20066;-59
2022/12/07 01:28:36;;;;;;;3.92;2.35;;;27.30;91.50;;;;;;5120742;28;20262;-55
2022/12/07 01:31:14;;;;;;;12.55;4.40;;;27.30;91.50;;;;;;5117026;28;20097;-58
2022/12/07 01:33:42;;;;;;;6.65;2.78;;;27.30;91.60;;;;;;5116836;28;20035;-55
2022/12/07 01:36:16;;;;;;;4.13;2.50;;;27.30;91.60;;;;;;5109590;28;20091;-58
2022/12/07 01:38:44;;;;;;;10.82;2.50;;;27.30;91.30;;;;;;5118648;28;20320;-51
2022/12/07 01:41:11;;;;;;;4.63;2.55;;;27.30;91.30;;;;;;5127561;28;20107;-53
2022/12/07 01:46:10;;;;;;;6.45;2.38;;;27.10;91.80;;;;;;5017946;28;20391;-50
2022/12/07 01:48:41;;;;;;;5.80;2.25;;;27.10;91.50;;;;;;5017795;28;20048;-52
2022/12/07 01:51:14;;;;;;;6.50;2.53;;;27.20;91.60;;;;;;4998679;28;20030;-53
2022/12/07 01:53:43;;;;;;;4.90;2.63;;;27.30;91.50;;;;;;5027587;28;20215;-50
2022/12/07 01:56:15;;;;;;;6.18;2.95;;;27.30;91.40;;;;;;5071716;28;20323;-54
2022/12/07 01:58:42;;;;;;;4.20;2.30;;;27.30;91.30;;;;;;5100785;28;20020;-52
2022/12/07 02:01:09;;;;;;;7.18;2.60;;;27.30;91.20;;;;;;5090544;28;20021;-55
2022/12/07 02:03:40;;;;;;;6.28;2.08;;;27.30;90.90;;;;;;5006776;28;20045;-53
2022/12/07 02:06:08;;;;;;;8.60;2.67;;;27.20;90.80;;;;;;5000411;28;20030;-51
2022/12/07 02:08:35;;;;;;;4.43;2.13;;;27.10;91.10;;;;;;5004845;28;20033;-52
2022/12/07 02:11:03;;;;;;;3.72;2.05;;;27.10;91.10;;;;;;5014484;28;20037;-53
2022/12/07 02:13:33;;;;;;;3.50;1.65;;;27.00;91.00;;;;;;4997157;28;20035;-52
2022/12/07 02:16:42;;;;;;;5.72;2.05;;;26.90;91.00;;;;;;4990061;28;20398;-53
2022/12/07 02:19:45;;;;;;;5.72;2.90;;;26.90;91.00;;;;;;4978548;28;20207;-55
2022/12/07 02:22:37;;;;;;;4.88;2.40;;;26.80;91.10;;;;;;5005036;28;20030;-57
2022/12/07 02:25:25;;;;;;;23.27;14.93;;;26.80;91.30;;;;;;4997670;28;20394;-53
2022/12/07 02:28:04;;;;;;;11.02;6.57;;;26.80;91.20;;;;;;4978812;28;20031;-56
2022/12/07 02:30:35;;;;;;;14.52;5.55;;;26.80;91.30;;;;;;4978829;28;20326;-54
2022/12/07 02:33:13;;;;;;;8.65;3.40;;;26.80;91.30;;;;;;4978659;28;20090;-53
2022/12/07 02:35:45;;;;;;;5.97;3.10;;;26.70;91.10;;;;;;4988299;28;20039;-53
2022/12/07 02:38:24;;;;;;;8.52;2.90;;;26.70;91.10;;;;;;4990386;28;20079;-53
2022/12/07 02:41:20;;;;;;;9.35;3.10;;;26.70;90.70;;;;;;4997249;28;20034;-53
2022/12/07 02:43:57;;;;;;;6.70;3.35;;;26.80;90.90;;;;;;4996696;28;20038;-53
2022/12/07 02:46:30;;;;;;;16.58;4.75;;;26.90;91.00;;;;;;4992206;28;20287;-53
2022/12/07 02:48:59;;;;;;;;;;;27.00;91.00;;;;;;4988612;28;20027;-55
2022/12/07 02:51:26;;;;;;;8.40;4.00;;;27.00;91.10;;;;;;4978346;28;19906;-51
2022/12/07 02:53:52;;;;;;;8.65;4.00;;;27.10;91.10;;;;;;4978018;28;20031;-52
2022/12/07 02:56:43;;;;;;;7.93;3.78;;;27.20;91.10;;;;;;4971232;28;20086;-54
2022/12/07 02:59:28;;;;;;;7.43;3.38;;;27.20;91.10;;;;;;4965332;28;20027;-53
2022/12/07 03:02:20;;;;;;;7.70;3.05;;;27.30;91.10;;;;;;4981989;28;20224;-52
2022/12/07 03:05:00;;;;;;;6.47;3.03;;;27.30;91.00;;;;;;4998808;28;20098;-54
2022/12/07 03:07:53;;;;;;;6.70;2.78;;;27.30;91.00;;;;;;5048295;28;20096;-50
2022/12/07 03:10:43;;;;;;;4.20;2.28;;;27.30;90.90;;;;;;5011010;28;20046;-54
2022/12/07 03:13:31;;;;;;;5.38;2.20;;;27.30;90.80;;;;;;4998771;28;20033;-51
2022/12/07 03:16:10;;;;;;;4.53;2.33;;;27.30;90.80;;;;;;5022457;28;20033;-54
2022/12/07 03:18:43;;;;;;;3.22;1.90;;;27.30;90.80;;;;;;5016686;28;20024;-53
2022/12/07 03:21:18;;;;;;;4.82;2.30;;;27.30;90.80;;;;;;4985628;28;20039;-53
2022/12/07 03:23:49;;;;;;;5.20;2.75;;;27.30;90.70;;;;;;4985027;28;20053;-51
2022/12/07 03:26:18;;;;;;;5.85;2.35;;;27.30;90.70;;;;;;4983185;28;20073;-57
2022/12/07 03:28:51;;;;;;;5.55;2.25;;;27.30;90.80;;;;;;4982984;28;20212;-55
2022/12/07 03:31:29;;;;;;;5.18;2.92;;;27.40;90.90;;;;;;4977069;28;20223;-53
2022/12/07 03:34:08;;;;;;;5.30;3.20;;;27.30;90.80;;;;;;4977752;28;20034;-52
2022/12/07 03:37:13;;;;;;;5.05;3.70;;;27.30;90.80;;;;;;4979379;28;20031;-54
2022/12/07 03:40:08;;;;;;;4.88;3.15;;;27.30;90.70;;;;;;4974638;28;20053;-51
2022/12/07 03:42:35;;;;;;;7.18;3.90;;;27.30;90.70;;;;;;4964494;28;20035;-53
2022/12/07 03:45:04;;;;;;;4.68;2.95;;;27.30;90.70;;;;;;4966054;28;20058;-52
2022/12/07 03:47:47;;;;;;;5.25;3.28;;;27.30;90.70;;;;;;4967420;28;20038;-52
2022/12/07 03:50:30;;;;;;;4.78;2.80;;;27.30;90.70;;;;;;4964123;28;20054;-54
2022/12/07 03:53:03;;;;;;;6.22;2.40;;;27.30;90.80;;;;;;4964680;29;20050;-53
2022/12/07 03:55:31;;;;;;;5.80;2.30;;;27.30;90.70;;;;;;4965806;28;20031;-54
2022/12/07 03:58:09;;;;;;;4.43;2.45;;;27.30;90.50;;;;;;4973827;28;20031;-54
2022/12/07 04:00:36;;;;;;;5.00;2.17;;;27.30;90.50;;;;;;4981323;28;20109;-53
2022/12/07 04:03:03;;;;;;;4.70;1.88;;;27.30;90.60;;;;;;4974948;28;20077;-53
2022/12/07 04:05:35;;;;;;;5.07;2.28;;;27.30;90.60;;;;;;5001207;28;20036;-55
2022/12/07 04:08:05;;;;;;;3.03;1.80;;;27.30;90.60;;;;;;4990575;28;20027;-55
2022/12/07 04:10:31;;;;;;;2.88;1.90;;;27.30;90.50;;;;;;4983920;28;20031;-53
2022/12/07 04:12:58;;;;;;;3.15;1.92;;;27.20;90.40;;;;;;4983597;28;20019;-52
2022/12/07 04:15:28;;;;;;;7.88;2.35;;;27.20;90.40;;;;;;4983705;28;20039;-55
2022/12/07 04:17:55;;;;;;;8.32;2.05;;;27.30;90.50;;;;;;4982039;28;20057;-55
2022/12/07 04:20:21;;;;;;;4.20;2.13;;;27.20;90.40;;;;;;4983379;28;20068;-52
2022/12/07 04:22:48;;;;;;;5.97;2.42;;;27.20;90.30;;;;;;5026939;28;20042;-52
2022/12/07 04:25:15;;;;;;;6.70;2.60;;;27.20;90.40;;;;;;5006850;28;20341;-55
2022/12/07 04:27:41;;;;;;;6.07;2.28;;;27.20;90.40;;;;;;4996515;28;20069;-52
2022/12/07 04:30:08;;;;;;;4.07;2.25;;;27.20;90.40;;;;;;5085194;28;20032;-54
2022/12/07 04:32:35;;;;;;;6.63;2.30;;;27.20;90.40;;;;;;5084863;28;20020;-53
2022/12/07 04:35:01;;;;;;;2.33;1.98;;;27.20;90.40;;;;;;5085217;28;20036;-54
2022/12/07 04:37:28;;;;;;;2.92;2.05;;;27.20;90.40;;;;;;5042067;28;20022;-52
2022/12/07 04:39:54;;;;;;;4.97;1.75;;;27.20;90.40;;;;;;5049562;28;20036;-55
2022/12/07 04:42:21;;;;;;;4.05;1.75;;;27.10;90.30;;;;;;4984105;28;20338;-51
2022/12/07 04:44:47;;;;;;;4.20;2.10;;;27.20;90.40;;;;;;4976049;28;20046;-52
2022/12/07 04:47:14;;;;;;;4.40;1.90;;;27.10;90.40;;;;;;4980712;28;20046;-51
2022/12/07 04:49:41;;;;;;;3.42;2.05;;;27.10;90.50;;;;;;4971905;28;20076;-52
2022/12/07 04:52:07;;;;;;;5.53;2.33;;;27.10;90.40;;;;;;4971750;28;20142;-51
2022/12/07 04:54:34;;;;;;;4.85;2.17;;;27.10;90.40;;;;;;4974770;28;20035;-52
2022/12/07 04:57:00;;;;;;;3.63;2.53;;;27.10;90.50;;;;;;4973190;28;20034;-52
2022/12/07 04:59:27;;;;;;;4.13;2.08;;;27.10;90.60;;;;;;4973805;28;20050;-50
2022/12/07 05:01:53;;;;;;;5.13;2.10;;;27.10;90.60;;;;;;4975791;28;20030;-51
2022/12/07 05:04:20;;;;;;;3.83;1.83;;;27.00;90.70;;;;;;4963330;29;20039;-51
2022/12/07 05:06:46;;;;;;;4.95;1.80;;;27.00;90.70;;;;;;4973364;28;20060;-52
2022/12/07 05:09:13;;;;;;;5.53;2.20;;;27.00;90.70;;;;;;4971832;28;20219;-53
2022/12/07 05:11:39;;;;;;;8.10;2.00;;;27.00;90.70;;;;;;4978535;28;20073;-53
2022/12/07 05:14:26;;;;;;;4.53;2.08;;;27.00;90.70;;;;;;4982607;28;20031;-52
2022/12/07 05:16:53;;;;;;;3.72;1.55;;;27.00;90.70;;;;;;4982435;28;20257;-52
2022/12/07 05:19:20;;;;;;;5.97;2.00;;;27.00;90.80;;;;;;4980081;28;20163;-52
2022/12/07 05:21:47;;;;;;;6.43;2.17;;;26.90;90.90;;;;;;4971634;28;20220;-53
2022/12/07 05:24:15;;;;;;;4.35;2.05;;;26.90;90.90;;;;;;4976301;28;20366;-51
2022/12/07 05:26:43;;;;;;;4.90;1.88;;;26.90;90.80;;;;;;4968344;28;20327;-53
2022/12/07 05:29:13;;;;;;;3.10;1.90;;;26.90;90.70;;;;;;4971468;28;20073;-52
2022/12/07 05:31:39;;;;;;;2.22;1.70;;;26.90;90.60;;;;;;4963371;28;20079;-52
2022/12/07 05:34:06;;;;;;;4.78;2.03;;;26.90;90.40;;;;;;4962864;29;20031;-52
2022/12/07 05:36:32;;;;;;;6.10;2.22;;;26.90;90.40;;;;;;4962812;29;20338;-52
2022/12/07 05:38:59;;;;;;;2.95;1.90;;;26.80;90.30;;;;;;4963163;29;20041;-52
2022/12/07 05:44:11;;;;;;;3.85;1.80;;;26.90;90.20;;;;;;4962694;28;20241;-52
2022/12/07 05:46:38;;;;;;;3.00;1.73;;;26.90;90.10;;;;;;4962788;29;20035;-53
2022/12/07 05:49:04;;;;;;;4.20;1.85;;;26.90;90.10;;;;;;4968028;28;20252;-54
2022/12/07 05:51:31;;;;;;;4.13;1.48;;;26.90;90.10;;;;;;4972146;28;20072;-53
2022/12/07 05:53:57;;;;;;;2.20;1.55;;;26.90;90.10;;;;;;4962553;28;20103;-55
2022/12/07 05:56:24;;;;;;;5.53;1.73;;;26.90;90.00;;;;;;4978348;28;20340;-52
2022/12/07 06:01:35;;;;;;;4.63;1.50;;;26.90;89.90;;;;;;4969852;28;20034;-50
2022/12/07 06:04:02;;;;;;;8.07;1.55;;;26.80;89.80;;;;;;4964674;28;20023;-52
2022/12/07 06:06:28;;;;;;;5.72;1.80;;;26.80;89.60;;;;;;4962561;28;20059;-53
2022/12/07 06:08:55;;;;;;;5.63;1.95;;;26.80;89.60;;;;;;4962482;29;20330;-52
2022/12/07 06:14:06;;;;;;;4.90;1.90;;;26.80;89.40;;;;;;4966730;28;20042;-57
2022/12/07 06:16:33;;;;;;;3.88;1.80;;;26.80;89.40;;;;;;4981609;28;20030;-54
2022/12/07 06:19:00;;;;;;;5.40;1.83;;;26.80;89.20;;;;;;4981578;28;20315;-54
2022/12/07 06:21:26;;;;;;;1.85;1.60;;;26.80;89.40;;;;;;4981668;28;20077;-58
2022/12/07 06:23:53;;;;;;;3.55;1.60;;;26.80;89.50;;;;;;4981407;28;20038;-59
2022/12/07 06:26:19;;;;;;;4.20;1.48;;;26.80;89.50;;;;;;4981225;28;20080;-56
2022/12/07 06:28:46;;;;;;;3.00;1.63;;;26.70;89.20;;;;;;4981399;28;20045;-55
2022/12/07 06:31:12;;;;;;;3.42;1.90;;;26.70;89.20;;;;;;4982444;28;20026;-53
2022/12/07 06:33:39;;;;;;;4.00;2.00;;;26.70;89.20;;;;;;4969415;28;20030;-55
2022/12/07 06:36:06;;;;;;;4.22;1.88;;;26.70;89.20;;;;;;4970820;28;20038;-54
2022/12/07 06:38:32;;;;;;;5.25;1.75;;;26.70;89.30;;;;;;4984756;28;20072;-54
2022/12/07 06:40:59;;;;;;;2.80;1.80;;;26.70;89.50;;;;;;4985039;28;20065;-55
2022/12/07 06:43:25;;;;;;;2.22;1.80;;;26.70;89.50;;;;;;4984816;28;20068;-55
2022/12/07 06:45:52;;;;;;;2.58;1.60;;;26.70;89.50;;;;;;4978938;28;20054;-54
2022/12/07 06:48:18;;;;;;;4.57;1.70;;;26.70;89.60;;;;;;4965360;29;20034;-53
2022/12/07 06:50:46;;;;;;;2.88;1.70;;;26.70;89.70;;;;;;4965717;28;20023;-53
2022/12/07 06:53:13;;;;;;;3.58;1.73;;;26.70;89.70;;;;;;4965166;29;20031;-55
2022/12/07 06:55:40;;;;;;;3.72;1.73;;;26.70;89.50;;;;;;4965703;28;20066;-52
2022/12/07 06:58:06;;;;;;;4.97;1.88;;;26.70;89.50;;;;;;4965278;29;20027;-54
2022/12/07 07:00:34;;;;;;;3.92;1.70;;;26.70;89.40;;;;;;4965493;29;20046;-54
2022/12/07 07:03:01;;;;;;;3.58;1.60;;;26.70;89.40;;;;;;4965288;28;20023;-56
2022/12/07 07:05:28;;;;;;;4.10;2.00;;;26.60;89.20;;;;;;4982997;28;20077;-53
2022/12/07 07:07:54;;;;;;;3.00;1.70;;;26.70;89.20;;;;;;4978912;28;20073;-53
2022/12/07 07:10:21;;;;;;;3.17;1.60;;;26.70;89.10;;;;;;4977729;28;20023;-55
2022/12/07 07:12:47;;;;;;;4.32;1.50;;;26.70;89.00;;;;;;4965005;29;20031;-55
2022/12/07 07:15:14;;;;;;;3.00;1.77;;;26.60;89.00;;;;;;4965275;29;20090;-52
2022/12/07 07:17:41;;;;;;;3.20;1.92;;;26.60;88.80;;;;;;4974704;28;20045;-54
2022/12/07 07:20:08;;;;;;;3.97;1.70;;;26.70;88.80;;;;;;4979772;28;20297;-54
2022/12/07 07:22:35;;;;;;;3.40;1.70;;;26.60;88.70;;;;;;4964833;29;20027;-53
2022/12/07 07:25:01;;;;;;;3.30;1.60;;;26.60;88.70;;;;;;4967779;28;20073;-53
2022/12/07 07:27:28;;;;;;;3.17;1.70;;;26.60;88.70;;;;;;4965060;29;20039;-53
2022/12/07 07:29:54;;;;;;;3.97;1.65;;;26.60;88.70;;;;;;4965089;29;20023;-52
2022/12/07 07:32:21;;;;;;;5.55;1.67;;;26.60;88.60;;;;;;4964680;29;20023;-54
2022/12/07 07:34:49;;;;;;;3.08;1.80;;;26.60;88.60;;;;;;4974326;28;20042;-56
2022/12/07 07:37:15;;;;;;;3.35;1.80;;;26.70;88.90;;;;;;4984017;28;20018;-55
2022/12/07 07:39:42;;;;;;;5.00;1.90;;;26.60;88.80;;;;;;4979624;28;20031;-53
2022/12/07 07:42:08;;;;;;;5.90;1.95;;;26.70;88.60;;;;;;4964647;29;20031;-56
2022/12/07 07:44:35;;;;;;;3.08;1.70;;;26.60;88.50;;;;;;4964243;29;20048;-54
2022/12/07 07:47:02;;;;;;;3.80;1.75;;;26.60;88.60;;;;;;4964394;29;20019;-56
2022/12/07 07:49:29;;;;;;;3.92;1.83;;;26.60;88.80;;;;;;4971551;28;20077;-55
2022/12/07 07:51:55;;;;;;;4.30;1.70;;;26.60;89.00;;;;;;4983762;28;20046;-55
2022/12/07 07:54:22;;;;;;;2.58;1.50;;;26.60;89.00;;;;;;4983747;28;20093;-58
2022/12/07 07:56:49;;;;;;;3.75;1.90;;;26.60;88.90;;;;;;4983627;28;20330;-54
2022/12/07 07:59:15;;;;;;;2.72;1.52;;;26.60;88.90;;;;;;4983892;28;20030;-54
2022/12/07 08:01:42;;;;;;;3.00;1.70;;;26.60;88.70;;;;;;4972647;28;20019;-54
2022/12/07 08:04:08;;;;;;;2.63;1.58;;;26.60;88.60;;;;;;4964244;29;20043;-56
2022/12/07 08:06:35;;;;;;;4.10;1.90;;;26.60;88.60;;;;;;4964338;28;20025;-55
2022/12/07 08:09:02;;;;;;;3.33;1.50;;;26.60;88.30;;;;;;4964171;29;20023;-54
2022/12/07 08:11:29;;;;;;;2.15;1.63;;;26.60;88.30;;;;;;4972846;28;20026;-55
2022/12/07 08:13:55;;;;;;;2.08;1.35;;;26.60;88.20;;;;;;4983061;28;20027;-55
2022/12/07 08:16:22;;;;;;;4.38;1.60;;;26.60;88.40;;;;;;4981167;28;20023;-54
2022/12/07 08:18:48;;;;;;;4.13;1.75;;;26.60;87.70;;;;;;4969082;28;20035;-54
2022/12/07 08:21:15;;;;;;;2.90;1.60;;;26.60;87.50;;;;;;4983248;28;20031;-55
2022/12/07 08:23:43;;;;;;;2.75;1.75;;;26.50;87.30;;;;;;4972979;28;20311;-56
2022/12/07 08:26:15;;;;;;;2.78;1.50;;;26.60;87.30;;;;;;4964114;28;20072;-54
2022/12/07 08:28:42;;;;;;;3.95;1.77;;;26.50;87.10;;;;;;4963802;29;20019;-53
2022/12/07 08:31:13;;;;;;;4.35;1.60;;;26.50;87.20;;;;;;4970490;28;20101;-54
2022/12/07 08:33:39;;;;;;;3.67;1.75;;;26.50;87.20;;;;;;4983032;28;20057;-54
2022/12/07 08:36:12;;;;;;;2.92;1.77;;;26.50;87.20;;;;;;4983163;28;20018;-55
2022/12/07 08:38:40;;;;;;;2.58;1.90;;;26.50;87.40;;;;;;4982975;28;20039;-52
2022/12/07 08:41:07;;;;;;;2.20;1.58;;;26.50;87.60;;;;;;4983241;28;20086;-55
2022/12/07 08:43:35;;;;;;;3.63;1.88;;;26.50;87.40;;;;;;4982948;28;20097;-52
2022/12/07 08:46:07;;;;;;;5.75;1.70;;;26.50;87.30;;;;;;4982553;28;20045;-54
2022/12/07 08:48:38;;;;;;;1.50;1.40;;;26.40;87.40;;;;;;4983033;28;20038;-53
2022/12/07 08:51:05;;;;;;;2.10;1.70;;;26.50;87.70;;;;;;4976551;28;20031;-59
2022/12/07 08:53:32;;;;;;;11.50;2.15;;;26.50;87.90;;;;;;4963072;29;20203;-54
2022/12/07 08:55:59;;;;;;;3.10;1.90;;;26.40;87.90;;;;;;4963995;29;20043;-53
2022/12/07 08:58:26;;;;;;;3.00;1.85;;;26.40;88.00;;;;;;4963273;28;20045;-54
2022/12/07 09:00:52;;;;;;;4.35;2.00;;;26.40;87.90;;;;;;4974818;28;20035;-54
2022/12/07 09:03:19;;;;;;;2.40;1.60;;;26.40;87.90;;;;;;4963611;28;20035;-53
2022/12/07 09:05:45;;;;;;;1.83;1.60;;;26.40;87.80;;;;;;4982133;28;20027;-54
2022/12/07 09:08:12;;;;;;;3.10;1.90;;;26.40;87.90;;;;;;4971189;28;20046;-53
2022/12/07 09:10:38;;;;;;;2.78;1.70;;;26.40;87.70;;;;;;4975297;28;20473;-53
2022/12/07 09:13:05;;;;;;;4.43;1.73;;;26.40;87.80;;;;;;4978918;28;20022;-52
2022/12/07 09:15:31;;;;;;;2.40;1.70;;;26.40;87.80;;;;;;4975957;28;20027;-52
2022/12/07 09:17:58;;;;;;;1.60;1.50;;;26.30;87.70;;;;;;4963174;29;20027;-52
2022/12/07 09:20:25;;;;;;;4.10;1.75;;;26.40;87.70;;;;;;4963607;29;20035;-57
2022/12/07 09:22:51;;;;;;;3.58;1.70;;;26.40;87.60;;;;;;4962964;29;20038;-53
2022/12/07 09:25:18;;;;;;;2.17;1.70;;;26.40;87.50;;;;;;4977493;28;20148;-53
2022/12/07 09:27:44;;;;;;;4.03;1.50;;;26.30;87.20;;;;;;4981854;28;20022;-54
2022/12/07 09:30:11;;;;;;;4.03;1.65;;;26.30;87.10;;;;;;5035203;28;20074;-51
2022/12/07 09:32:38;;;;;;;4.18;1.85;;;26.30;87.00;;;;;;4963033;29;20027;-55
2022/12/07 09:35:04;;;;;;;1.88;1.65;;;26.30;87.10;;;;;;4962848;29;20256;-53
2022/12/07 09:37:34;;;;;;;2.75;1.83;;;26.30;87.10;;;;;;4977541;28;20094;-52
2022/12/07 09:40:01;;;;;;;5.30;1.98;;;26.30;87.10;;;;;;4982426;28;20334;-53
2022/12/07 09:42:34;;;;;;;4.50;1.90;;;26.30;87.20;;;;;;4981304;28;20098;-53
2022/12/07 09:45:01;;;;;;;12.35;2.05;;;26.30;87.40;;;;;;4979462;28;20067;-57
2022/12/07 09:47:28;;;;;;;3.67;2.00;;;26.30;87.50;;;;;;4982014;28;20019;-53
2022/12/07 09:50:06;;;;;;;5.10;1.90;;;26.30;87.50;;;;;;4982254;28;20077;-54
2022/12/07 09:52:32;;;;;;;3.75;1.80;;;26.30;87.80;;;;;;4967336;28;20026;-53
2022/12/07 09:54:59;;;;;;;3.10;1.70;;;26.30;88.10;;;;;;4962958;28;20258;-53
2022/12/07 09:57:31;;;;;;;3.22;1.90;;;26.20;88.20;;;;;;4964221;28;20027;-53
2022/12/07 10:00:03;;;;;;;3.28;1.80;;;26.20;88.50;;;;;;4966046;28;20040;-52
2022/12/07 10:02:35;;;;;;;2.88;1.80;;;26.20;88.70;;;;;;4981195;28;20022;-52
2022/12/07 10:05:03;;;;;;;;;;;26.20;89.00;;;;;;4969429;28;20069;-53
2022/12/07 10:07:30;;;;;;;2.88;2.17;;;26.20;89.20;;;;;;4965406;28;20125;-54
2022/12/07 10:09:57;;;;;;;3.53;2.10;;;26.10;89.20;;;;;;4966164;29;20211;-53
2022/12/07 10:12:23;;;;;;;3.05;1.88;;;26.10;89.10;;;;;;4966990;28;20023;-50
2022/12/07 10:15:06;;;;;;;4.28;2.50;;;26.10;88.90;;;;;;4985451;28;20066;-52
2022/12/07 10:17:33;;;;;;;;;;;26.10;89.00;;;;;;4985495;28;20019;-52
2022/12/07 10:20:16;;;;;;;5.30;2.40;;;26.10;89.10;;;;;;4983168;28;19910;-51
2022/12/07 10:23:05;;;;;;;4.88;2.25;;;26.10;89.30;;;;;;4978323;28;20421;-50
2022/12/07 10:25:36;;;;;;;6.10;2.00;;;26.10;89.50;;;;;;4978808;28;20088;-52
2022/12/07 10:28:12;;;;;;;4.17;2.00;;;26.10;89.70;;;;;;4974794;28;20019;-52
2022/12/07 10:30:59;;;;;;;5.18;2.10;;;26.10;89.80;;;;;;4978635;28;20297;-54
2022/12/07 10:33:49;;;;;;;6.10;2.25;;;26.10;90.00;;;;;;4979505;28;20036;-54
2022/12/07 10:36:32;;;;;;;12.20;2.28;;;26.10;90.10;;;;;;4967754;28;20050;-54
2022/12/07 10:39:04;;;;;;;3.85;2.50;;;26.10;90.20;;;;;;4975492;28;20337;-53
2022/12/07 10:41:31;;;;;;;7.85;2.67;;;26.10;90.20;;;;;;4975320;28;20042;-49
2022/12/07 10:43:58;;;;;;;6.57;2.80;;;26.10;90.20;;;;;;4970565;28;20050;-54
2022/12/07 10:46:33;;;;;;;6.47;2.55;;;26.10;90.30;;;;;;4974487;28;20362;-52
2022/12/07 10:49:05;;;;;;;5.13;2.50;;;26.10;90.40;;;;;;4965243;28;20050;-54
2022/12/07 10:51:56;;;;;;;5.28;3.22;;;26.10;90.50;;;;;;4965571;29;20047;-52
2022/12/07 10:54:43;;;;;;;8.05;3.20;;;26.10;90.50;;;;;;4969229;28;20054;-54
2022/12/07 10:57:16;;;;;;;6.82;3.30;;;26.00;90.50;;;;;;4984580;28;20098;-52
2022/12/07 10:59:50;;;;;;;8.52;3.28;;;26.00;90.50;;;;;;4984517;28;20303;-53
2022/12/07 11:02:26;;;;;;;5.93;3.08;;;26.00;90.50;;;;;;4984530;28;20042;-53
2022/12/07 11:05:24;;;;;;;3.95;3.00;;;26.00;90.50;;;;;;4976990;28;20042;-55
2022/12/07 11:08:13;;;;;;;6.90;2.67;;;26.00;90.50;;;;;;4964981;28;20042;-52
2022/12/07 11:10:51;;;;;;;4.95;2.60;;;26.00;90.50;;;;;;4981982;28;20118;-56
2022/12/07 11:13:24;;;;;;;60.15;5.30;;;26.00;90.50;;;;;;4984183;28;20231;-54
2022/12/07 11:16:17;;;;;;;12.50;3.17;;;26.00;90.60;;;;;;4982111;28;20039;-55
2022/12/07 11:19:18;;;;;;;10.13;2.90;;;26.00;90.60;;;;;;4964451;28;20047;-53
2022/12/07 11:22:03;;;;;;;10.52;2.88;;;26.00;90.60;;;;;;4964936;28;20315;-52
2022/12/07 11:25:08;;;;;;;10.77;3.30;;;26.00;90.70;;;;;;4965515;28;20319;-53
2022/12/07 11:27:44;;;;;;;4.43;2.70;;;26.00;90.70;;;;;;4945531;28;20024;-56
2022/12/07 11:30:22;;;;;;;6.60;2.80;;;26.00;90.70;;;;;;4975111;28;20100;-55
2022/12/07 11:33:20;;;;;;;6.45;2.80;;;26.00;90.80;;;;;;4984081;28;20058;-56
2022/12/07 11:36:16;;;;;;;6.45;3.22;;;26.00;90.70;;;;;;4984499;28;20045;-54
2022/12/07 11:38:45;;;;;;;4.40;2.60;;;26.00;90.70;;;;;;4964695;28;20031;-58
2022/12/07 11:41:22;;;;;;;3.65;2.50;;;26.00;90.70;;;;;;4981119;28;20034;-56
2022/12/07 11:43:54;;;;;;;6.72;2.88;;;26.00;90.80;;;;;;4968519;28;20319;-56
2022/12/07 11:46:24;;;;;;;;;;;26.00;90.80;;;;;;4977052;28;20039;-55
2022/12/07 11:49:01;;;;;;;5.85;2.95;;;26.10;90.90;;;;;;4981808;28;19913;-52
2022/12/07 11:51:31;;;;;;;8.32;2.70;;;26.00;90.90;;;;;;4973860;28;20028;-53
2022/12/07 11:54:11;;;;;;;5.28;2.67;;;26.10;90.80;;;;;;4965573;28;20023;-52
2022/12/07 11:56:37;;;;;;;6.75;2.80;;;26.10;90.80;;;;;;4964356;29;20256;-52
2022/12/07 11:59:10;;;;;;;6.95;2.70;;;26.10;90.70;;;;;;4964626;29;20055;-51
2022/12/07 12:01:56;;;;;;;;;;;26.20;90.70;;;;;;4964796;28;20250;-52
2022/12/07 12:04:33;;;;;;;6.32;2.60;;;26.20;90.50;;;;;;4964576;28;20241;-52
2022/12/07 12:07:00;;;;;;;7.05;2.83;;;26.30;90.40;;;;;;4964224;29;20259;-53
2022/12/07 12:09:34;;;;;;;6.32;2.63;;;26.20;90.30;;;;;;4964295;29;20042;-53
2022/12/07 12:12:22;;;;;;;5.53;2.60;;;26.30;90.30;;;;;;4964484;29;20338;-54
2022/12/07 12:15:16;;;;;;;8.90;2.60;;;26.30;90.30;;;;;;4964660;29;20032;-54
2022/12/07 12:18:04;;;;;;;5.82;2.60;;;26.40;90.30;;;;;;4964113;28;20242;-55
2022/12/07 12:20:42;;;;;;;5.65;2.47;;;26.40;90.20;;;;;;4964534;29;20031;-54
2022/12/07 12:23:16;;;;;;;6.78;2.78;;;26.40;90.10;;;;;;4964029;29;20035;-57
2022/12/07 12:26:04;;;;;;;7.10;2.67;;;26.50;90.10;;;;;;4964270;28;20035;-54
2022/12/07 12:28:41;;;;;;;7.60;2.75;;;26.50;90.10;;;;;;4974321;28;20038;-56
2022/12/07 12:31:21;;;;;;;5.80;2.38;;;26.50;89.90;;;;;;4967976;28;20054;-53
2022/12/07 12:33:54;;;;;;;7.25;2.47;;;26.60;90.00;;;;;;4963705;29;20027;-53
2022/12/07 12:36:24;;;;;;;3.65;2.50;;;26.60;90.00;;;;;;4963725;29;20051;-56
2022/12/07 12:39:10;;;;;;;4.60;2.38;;;26.60;89.70;;;;;;4963828;28;20027;-53
2022/12/07 12:44:15;;;;;;;3.53;2.15;;;26.70;89.50;;;;;;4963687;28;20039;-56
2022/12/07 12:46:54;;;;;;;7.47;2.55;;;26.70;89.30;;;;;;4964108;28;20027;-54
2022/12/07 12:49:20;;;;;;;7.05;2.70;;;26.70;89.30;;;;;;4985910;28;20145;-59
2022/12/07 12:51:49;;;;;;;9.02;2.38;;;26.80;89.30;;;;;;4984623;28;20035;-53
2022/12/07 12:54:19;;;;;;;9.15;2.70;;;26.80;89.10;;;;;;4972644;28;20263;-54
2022/12/07 12:57:07;;;;;;;6.63;2.33;;;26.80;88.90;;;;;;4967574;28;20066;-52
2022/12/07 12:59:51;;;;;;;3.80;2.40;;;26.90;88.70;;;;;;4972189;28;20035;-55
2022/12/07 13:02:24;;;;;;;5.57;2.30;;;26.90;88.40;;;;;;4983581;28;20127;-53
2022/12/07 13:05:18;;;;;;;5.82;2.60;;;26.90;88.50;;;;;;4985171;28;20046;-52
2022/12/07 13:07:48;;;;;;;6.32;2.70;;;26.90;88.30;;;;;;4975513;28;20085;-53
2022/12/07 13:10:30;;;;;;;3.53;2.25;;;26.90;88.00;;;;;;4982654;28;20035;-53
2022/12/07 13:13:23;;;;;;;5.95;2.50;;;26.90;88.20;;;;;;4981234;28;20082;-52
2022/12/07 13:15:53;;;;;;;4.25;2.58;;;27.00;88.30;;;;;;4980793;28;20034;-51
2022/12/07 13:18:32;;;;;;;5.97;2.92;;;27.00;88.00;;;;;;4978351;28;20039;-51
2022/12/07 13:21:08;;;;;;;4.75;3.03;;;27.00;87.80;;;;;;4973515;28;20050;-51
2022/12/07 13:23:43;;;;;;;4.32;2.58;;;27.00;88.00;;;;;;5007218;28;20027;-52
2022/12/07 13:26:25;;;;;;;5.50;2.58;;;27.10;88.10;;;;;;4978967;28;20034;-51
2022/12/07 13:29:07;;;;;;;5.53;2.60;;;27.10;88.00;;;;;;4977975;28;20218;-50